createdAt,value
2024-03-05T00:00:13.722Z,7.30
2024-03-05T00:02:44.401Z,7.40
2024-03-05T00:05:15.465Z,7.30
2024-03-05T00:07:44.341Z,7.20
2024-03-05T00:10:12.705Z,7.30
2024-03-05T00:12:41.030Z,7.30
2024-03-05T00:15:09.812Z,7.30
2024-03-05T00:17:41.006Z,7.30
2024-03-05T00:20:19.704Z,7.30
2024-03-05T00:22:51.503Z,7.30
2024-03-05T00:25:20.155Z,7.30
2024-03-05T00:27:49.276Z,7.30
2024-03-05T00:30:20.874Z,7.30
2024-03-05T00:32:49.299Z,7.30
2024-03-05T00:35:17.713Z,7.30
2024-03-05T00:37:45.983Z,7.30
2024-03-05T00:40:15.602Z,7.30
2024-03-05T00:42:43.946Z,7.30
2024-03-05T00:45:13.608Z,7.30
2024-03-05T00:47:45.293Z,7.20
2024-03-05T00:50:14.687Z,7.20
2024-03-05T00:52:45.118Z,7.20
2024-03-05T00:55:13.458Z,7.20
2024-03-05T00:57:43.230Z,7.20
2024-03-05T01:00:14.375Z,7.20
2024-03-05T01:02:43.466Z,7.20
2024-03-05T01:05:11.950Z,7.20
2024-03-05T01:07:40.341Z,7.20
2024-03-05T01:10:09.634Z,7.20
2024-03-05T01:12:38.083Z,7.20
2024-03-05T01:15:13.982Z,7.20
2024-03-05T01:17:42.136Z,7.20
2024-03-05T01:20:19.515Z,7.20
2024-03-05T01:22:48.584Z,7.20
2024-03-05T01:25:18.438Z,7.20
2024-03-05T01:27:46.747Z,7.20
2024-03-05T01:30:17.118Z,7.20
2024-03-05T01:32:47.729Z,7.20
2024-03-05T01:35:17.826Z,7.20
2024-03-05T01:37:46.000Z,7.20
2024-03-05T01:40:14.587Z,7.20
2024-03-05T01:42:43.370Z,7.30
2024-03-05T01:45:12.068Z,7.30
2024-03-05T01:47:41.695Z,7.20
2024-03-05T01:50:11.040Z,7.20
2024-03-05T01:52:39.846Z,7.20
2024-03-05T01:55:14.119Z,7.30
2024-03-05T01:57:44.049Z,7.20
2024-03-05T02:00:16.597Z,7.20
2024-03-05T02:02:46.739Z,7.20
2024-03-05T02:05:15.701Z,7.20
2024-03-05T02:07:44.850Z,7.20
2024-03-05T02:10:13.371Z,7.20
2024-03-05T02:12:42.312Z,7.20
2024-03-05T02:15:12.691Z,7.20
2024-03-05T02:17:41.763Z,7.20
2024-03-05T02:20:13.353Z,7.20
2024-03-05T02:22:43.405Z,7.20
2024-03-05T02:25:18.662Z,7.20
2024-03-05T02:27:50.515Z,7.20
2024-03-05T02:30:19.201Z,7.20
2024-03-05T02:32:48.232Z,7.20
2024-03-05T02:35:16.498Z,7.20
2024-03-05T02:37:46.193Z,7.20
2024-03-05T02:40:15.737Z,7.20
2024-03-05T02:42:44.856Z,7.10
2024-03-05T02:45:14.159Z,7.20
2024-03-05T02:47:42.671Z,7.20
2024-03-05T02:50:14.387Z,7.20
2024-03-05T02:52:42.903Z,7.20
2024-03-05T02:55:14.095Z,7.20
2024-03-05T02:57:43.560Z,7.20
2024-03-05T03:00:20.074Z,7.20
2024-03-05T03:02:50.069Z,7.20
2024-03-05T03:05:18.734Z,7.20
2024-03-05T03:07:45.986Z,7.20
2024-03-05T03:10:16.098Z,7.20
2024-03-05T03:12:44.979Z,7.20
2024-03-05T03:15:16.062Z,7.20
2024-03-05T03:17:44.222Z,7.20
2024-03-05T03:20:16.802Z,7.20
2024-03-05T03:22:45.563Z,7.20
2024-03-05T03:25:15.341Z,7.20
2024-03-05T03:27:43.797Z,7.20
2024-03-05T03:30:19.098Z,7.20
2024-03-05T03:32:48.650Z,7.20
2024-03-05T03:35:17.011Z,7.20
2024-03-05T03:37:45.233Z,7.20
2024-03-05T03:40:23.042Z,7.20
2024-03-05T03:42:53.599Z,7.10
2024-03-05T03:45:22.630Z,7.20
2024-03-05T03:47:51.454Z,7.20
2024-03-05T03:50:19.841Z,7.20
2024-03-05T03:52:48.043Z,7.10
2024-03-05T03:55:17.915Z,7.20
2024-03-05T03:57:46.816Z,7.20
2024-03-05T04:00:19.897Z,7.10
2024-03-05T04:02:48.957Z,7.20
2024-03-05T04:05:17.647Z,7.20
2024-03-05T04:07:45.817Z,7.20
2024-03-05T04:10:14.404Z,7.20
2024-03-05T04:12:44.024Z,7.20
2024-03-05T04:15:13.610Z,7.20
2024-03-05T04:17:42.531Z,7.20
2024-03-05T04:20:12.293Z,7.10
2024-03-05T04:22:40.882Z,7.20
2024-03-05T04:25:10.073Z,7.20
2024-03-05T04:27:46.830Z,7.20
2024-03-05T04:30:17.634Z,7.20
2024-03-05T04:32:58.871Z,7.20
2024-03-05T04:35:30.059Z,7.20
2024-03-05T04:38:02.295Z,7.20
2024-03-05T04:40:31.369Z,7.20
2024-03-05T04:42:59.508Z,7.10
2024-03-05T04:45:29.195Z,7.10
2024-03-05T04:47:58.038Z,7.20
2024-03-05T04:50:26.918Z,7.20
2024-03-05T04:52:55.305Z,7.20
2024-03-05T04:55:24.460Z,7.20
2024-03-05T04:57:53.271Z,7.10
2024-03-05T05:00:22.400Z,7.10
2024-03-05T05:02:53.588Z,7.10
2024-03-05T05:05:25.899Z,7.10
2024-03-05T05:07:56.004Z,7.10
2024-03-05T05:10:24.302Z,7.10
2024-03-05T05:12:52.418Z,7.10
2024-03-05T05:15:20.630Z,7.10
2024-03-05T05:17:50.074Z,7.10
2024-03-05T05:20:23.104Z,7.00
2024-03-05T05:22:51.313Z,7.00
2024-03-05T05:25:20.977Z,7.00
2024-03-05T05:27:50.072Z,7.00
2024-03-05T05:30:19.337Z,7.00
2024-03-05T05:32:47.687Z,7.10
2024-03-05T05:35:16.388Z,7.00
2024-03-05T05:37:46.369Z,7.00
2024-03-05T05:40:20.779Z,7.00
2024-03-05T05:42:51.248Z,7.00
2024-03-05T05:45:23.056Z,7.00
2024-03-05T05:47:53.062Z,7.00
2024-03-05T05:50:23.560Z,7.10
2024-03-05T05:52:55.283Z,7.10
2024-03-05T05:55:26.543Z,7.10
2024-03-05T05:57:56.142Z,7.10
2024-03-05T06:00:33.411Z,7.10
2024-03-05T06:03:02.500Z,7.00
2024-03-05T06:05:33.458Z,7.00
2024-03-05T06:08:03.479Z,6.90
2024-03-05T06:10:31.769Z,6.90
2024-03-05T06:13:01.918Z,6.90
2024-03-05T06:15:30.751Z,6.80
2024-03-05T06:18:02.571Z,6.80
2024-03-05T06:20:32.812Z,6.70
2024-03-05T06:23:03.694Z,6.80
2024-03-05T06:25:32.203Z,6.90
2024-03-05T06:28:00.425Z,6.90
2024-03-05T06:30:29.558Z,6.90
2024-03-05T06:32:58.208Z,7.00
2024-03-05T06:35:28.322Z,7.00
2024-03-05T06:37:58.697Z,7.00
2024-03-05T06:40:29.587Z,7.00
2024-03-05T06:43:06.583Z,7.00
2024-03-05T06:45:36.666Z,7.00
2024-03-05T06:50:42.800Z,7.00
2024-03-05T06:53:29.444Z,7.00
2024-03-05T06:56:16.952Z,7.00
2024-03-05T06:58:49.478Z,7.10
2024-03-05T07:01:18.484Z,7.10
2024-03-05T07:03:46.730Z,7.10
2024-03-05T07:06:15.534Z,7.10
2024-03-05T07:08:48.115Z,7.10
2024-03-05T07:11:18.391Z,7.10
2024-03-05T07:13:49.150Z,7.10
2024-03-05T07:16:18.986Z,7.10
2024-03-05T07:18:48.843Z,7.20
2024-03-05T07:21:20.859Z,7.20
2024-03-05T07:23:56.265Z,7.20
2024-03-05T07:26:26.420Z,7.30
2024-03-05T07:28:54.883Z,7.30
2024-03-05T07:31:25.233Z,7.30
2024-03-05T07:33:59.447Z,7.30
2024-03-05T07:36:27.795Z,7.40
2024-03-05T07:38:55.933Z,7.40
2024-03-05T07:41:30.182Z,7.40
2024-03-05T07:44:05.515Z,7.40
2024-03-05T07:46:34.731Z,7.40
2024-03-05T07:49:03.536Z,7.40
2024-03-05T07:51:40.424Z,7.30
2024-03-05T07:54:12.890Z,7.30
2024-03-05T07:56:41.310Z,7.40
2024-03-05T07:59:14.726Z,7.40
2024-03-05T08:01:43.068Z,7.40
2024-03-05T08:04:11.282Z,7.40
2024-03-05T08:06:39.913Z,7.40
2024-03-05T08:09:09.157Z,7.40
2024-03-05T08:11:37.488Z,7.40
2024-03-05T08:14:08.580Z,7.50
2024-03-05T08:16:41.009Z,7.50
2024-03-05T08:19:09.656Z,7.50
2024-03-05T08:21:37.950Z,7.50
2024-03-05T08:24:07.653Z,7.50
2024-03-05T08:26:38.535Z,7.50
2024-03-05T08:29:05.829Z,7.50
2024-03-05T08:31:34.030Z,7.60
2024-03-05T08:34:05.571Z,7.60
2024-03-05T08:36:37.530Z,7.60
2024-03-05T08:39:16.608Z,7.70
2024-03-05T08:41:45.588Z,7.70
2024-03-05T08:44:13.807Z,7.70
2024-03-05T08:46:42.166Z,7.70
2024-03-05T08:49:11.813Z,7.70
2024-03-05T08:51:42.048Z,7.70
2024-03-05T08:54:15.638Z,7.70
2024-03-05T08:56:45.339Z,7.70
2024-03-05T08:59:13.498Z,7.70
2024-03-05T09:01:41.974Z,7.70
2024-03-05T09:04:12.956Z,7.60
2024-03-05T09:06:41.839Z,7.60
2024-03-05T09:09:12.284Z,7.60
2024-03-05T09:11:40.537Z,7.60
2024-03-05T09:14:10.001Z,7.60
2024-03-05T09:16:38.855Z,7.70
2024-03-05T09:19:07.612Z,7.70
2024-03-05T09:21:37.486Z,7.70
2024-03-05T09:24:09.114Z,7.60
2024-03-05T09:26:37.809Z,7.60
2024-03-05T09:29:06.192Z,7.60
2024-03-05T09:31:34.417Z,7.60
2024-03-05T09:34:03.498Z,7.60
2024-03-05T09:36:34.358Z,7.60
2024-03-05T09:39:10.363Z,7.70
2024-03-05T09:41:42.825Z,7.70
2024-03-05T09:44:11.251Z,7.80
2024-03-05T09:46:40.503Z,7.80
2024-03-05T09:49:17.911Z,7.90
2024-03-05T09:51:52.162Z,7.90
2024-03-05T09:54:21.765Z,7.90
2024-03-05T09:56:52.892Z,7.90
2024-03-05T09:59:21.904Z,8.00
2024-03-05T10:01:51.517Z,8.00
2024-03-05T10:04:20.956Z,8.10
2024-03-05T10:06:49.632Z,8.10
2024-03-05T10:09:18.544Z,8.20
2024-03-05T10:11:48.552Z,8.30
2024-03-05T10:14:16.717Z,8.40
2024-03-05T10:16:46.877Z,8.60
2024-03-05T10:19:16.650Z,8.60
2024-03-05T10:21:45.361Z,8.70
2024-03-05T10:24:15.011Z,8.70
2024-03-05T10:26:44.646Z,8.80
2024-03-05T10:29:14.670Z,8.90
2024-03-05T10:31:46.042Z,8.90
2024-03-05T10:34:17.331Z,8.90
2024-03-05T10:36:46.333Z,9.00
2024-03-05T10:39:14.887Z,9.10
2024-03-05T10:41:51.875Z,9.10
2024-03-05T10:44:22.385Z,9.10
2024-03-05T10:46:53.800Z,9.10
2024-03-05T10:49:24.246Z,9.30
2024-03-05T10:51:54.235Z,9.40
2024-03-05T10:54:29.130Z,9.40
2024-03-05T10:56:58.174Z,9.40
2024-03-05T10:59:41.441Z,9.50
2024-03-05T11:02:16.351Z,9.40
2024-03-05T11:04:45.121Z,9.50
2024-03-05T11:07:15.668Z,9.50
2024-03-05T11:09:45.880Z,9.50
2024-03-05T11:12:19.759Z,9.60
2024-03-05T11:14:50.980Z,9.70
2024-03-05T11:17:19.350Z,9.70
2024-03-05T11:19:49.944Z,9.70
2024-03-05T11:22:23.658Z,9.70
2024-03-05T11:24:59.433Z,9.70
2024-03-05T11:27:30.099Z,9.80
2024-03-05T11:30:13.186Z,9.90
2024-03-05T11:32:42.140Z,10.00
2024-03-05T11:35:12.040Z,9.90
2024-03-05T11:37:52.205Z,9.90
2024-03-05T11:40:22.741Z,9.80
2024-03-05T11:42:55.386Z,9.80
2024-03-05T11:45:50.802Z,9.80
2024-03-05T11:48:20.573Z,9.70
2024-03-05T11:50:50.214Z,9.70
2024-03-05T11:53:18.471Z,9.70
2024-03-05T11:55:48.013Z,9.80
2024-03-05T11:58:16.539Z,9.90
2024-03-05T12:00:46.199Z,9.90
2024-03-05T12:03:19.925Z,10.00
2024-03-05T12:05:48.189Z,10.10
2024-03-05T12:08:18.431Z,10.20
2024-03-05T12:10:51.087Z,10.10
2024-03-05T12:13:20.974Z,10.20
2024-03-05T12:15:49.152Z,10.20
2024-03-05T12:18:18.862Z,10.20
2024-03-05T12:20:48.680Z,10.20
2024-03-05T12:23:40.190Z,10.20
2024-03-05T12:26:06.687Z,10.20
2024-03-05T12:28:34.971Z,10.20
2024-03-05T12:31:03.162Z,10.30
2024-03-05T12:33:32.937Z,10.30
2024-03-05T12:36:01.132Z,10.40
2024-03-05T12:38:34.106Z,10.40
2024-03-05T12:41:02.442Z,10.30
2024-03-05T12:43:31.983Z,10.40
2024-03-05T12:46:04.943Z,10.30
2024-03-05T12:48:37.234Z,10.20
2024-03-05T12:51:06.218Z,10.20
2024-03-05T12:53:34.479Z,10.10
2024-03-05T12:56:03.554Z,10.10
2024-03-05T12:58:41.554Z,10.00
2024-03-05T13:01:11.985Z,9.90
2024-03-05T13:03:41.531Z,9.80
2024-03-05T13:06:09.710Z,9.80
2024-03-05T13:08:39.393Z,9.70
2024-03-05T13:11:07.707Z,9.60
2024-03-05T13:13:35.964Z,9.60
2024-03-05T13:16:04.219Z,9.60
2024-03-05T13:18:32.344Z,9.50
2024-03-05T13:21:01.929Z,9.40
2024-03-05T13:23:32.179Z,9.30
2024-03-05T13:26:00.407Z,9.20
2024-03-05T13:28:28.637Z,9.20
2024-03-05T13:30:56.802Z,9.20
2024-03-05T13:33:27.727Z,9.20
2024-03-05T13:35:56.702Z,9.10
2024-03-05T13:38:26.365Z,9.10
2024-03-05T13:40:54.974Z,9.00
2024-03-05T13:43:25.535Z,9.00
2024-03-05T13:45:53.686Z,9.00
2024-03-05T13:48:21.809Z,9.00
2024-03-05T13:50:53.352Z,8.90
2024-03-05T13:53:22.683Z,8.90
2024-03-05T13:55:56.218Z,8.80
2024-03-05T13:58:24.761Z,8.80
2024-03-05T14:00:53.112Z,8.80
2024-03-05T14:03:21.690Z,8.80
2024-03-05T14:05:50.601Z,8.70
2024-03-05T14:08:21.851Z,8.70
2024-03-05T14:10:51.353Z,8.60
2024-03-05T14:13:23.839Z,8.60
2024-03-05T14:15:53.293Z,8.60
2024-03-05T14:18:22.528Z,8.50
2024-03-05T14:20:52.213Z,8.50
2024-03-05T14:23:20.450Z,8.50
2024-03-05T14:25:51.700Z,8.60
2024-03-05T14:28:19.830Z,8.50
2024-03-05T14:30:49.291Z,8.50
2024-03-05T14:33:20.447Z,8.50
2024-03-05T14:35:51.117Z,8.30
2024-03-05T14:38:19.486Z,8.30
2024-03-05T14:40:47.797Z,8.30
2024-03-05T14:43:15.914Z,8.30
2024-03-05T14:45:45.491Z,8.30
2024-03-05T14:48:15.469Z,8.30
2024-03-05T14:50:43.767Z,8.30
2024-03-05T14:53:12.601Z,8.30
2024-03-05T14:55:41.222Z,8.40
2024-03-05T14:58:10.044Z,8.30
2024-03-05T15:00:39.737Z,8.30
2024-03-05T15:03:08.055Z,8.20
2024-03-05T15:05:37.624Z,8.20
2024-03-05T15:08:07.326Z,8.30
2024-03-05T15:10:36.772Z,8.30
2024-03-05T15:13:05.215Z,8.30
2024-03-05T15:15:34.464Z,8.20
2024-03-05T15:18:02.775Z,8.30
2024-03-05T15:20:34.243Z,8.30
2024-03-05T15:23:04.280Z,8.20
2024-03-05T15:25:35.760Z,8.20
2024-03-05T15:28:05.017Z,8.20
2024-03-05T15:30:35.811Z,8.20
2024-03-05T15:33:05.549Z,8.20
2024-03-05T15:35:34.137Z,8.20
2024-03-05T15:38:06.230Z,8.30
2024-03-05T15:40:34.932Z,8.20
2024-03-05T15:43:07.413Z,8.20
2024-03-05T15:45:39.028Z,8.20
2024-03-05T15:48:10.920Z,8.20
2024-03-05T15:50:42.442Z,8.10
2024-03-05T15:53:12.624Z,8.00
2024-03-05T15:55:46.577Z,7.80
2024-03-05T15:58:41.171Z,7.70
2024-03-05T16:01:09.274Z,7.50
2024-03-05T16:03:43.624Z,7.40
2024-03-05T16:06:20.221Z,7.30
2024-03-05T16:08:50.085Z,7.20
2024-03-05T16:11:21.206Z,7.10
2024-03-05T16:13:49.520Z,7.10
2024-03-05T16:16:21.034Z,7.10
2024-03-05T16:18:49.465Z,7.00
2024-03-05T16:21:18.312Z,7.00
2024-03-05T16:23:47.137Z,7.00
2024-03-05T16:26:16.894Z,7.00
2024-03-05T16:28:50.244Z,7.00
2024-03-05T16:31:18.385Z,7.00
2024-03-05T16:33:46.608Z,7.00
2024-03-05T16:36:15.065Z,7.00
2024-03-05T16:38:43.571Z,7.00
2024-03-05T16:41:12.110Z,7.00
2024-03-05T16:43:41.687Z,6.90
2024-03-05T16:46:09.831Z,6.90
2024-03-05T16:48:41.831Z,6.90
2024-03-05T16:51:10.101Z,6.70
2024-03-05T16:53:38.910Z,6.80
2024-03-05T16:56:07.665Z,6.80
2024-03-05T16:58:39.069Z,6.80
2024-03-05T17:01:13.685Z,6.70
2024-03-05T17:03:46.134Z,6.70
2024-03-05T17:06:16.152Z,6.60
2024-03-05T17:08:44.835Z,6.60
2024-03-05T17:11:16.611Z,6.60
2024-03-05T17:13:49.375Z,6.50
2024-03-05T17:16:20.205Z,6.50
2024-03-05T17:18:48.451Z,6.50
2024-03-05T17:21:18.179Z,6.50
2024-03-05T17:23:48.112Z,6.50
2024-03-05T17:26:17.243Z,6.50
2024-03-05T17:28:46.053Z,6.50
2024-03-05T17:31:14.323Z,6.40
2024-03-05T17:33:43.933Z,6.40
2024-03-05T17:36:12.201Z,6.40
2024-03-05T17:38:40.445Z,6.40
2024-03-05T17:41:09.213Z,6.40
2024-03-05T17:43:38.016Z,6.40
2024-03-05T17:46:07.424Z,6.40
2024-03-05T17:48:35.882Z,6.30
2024-03-05T17:51:11.143Z,6.30
2024-03-05T17:53:39.654Z,6.30
2024-03-05T17:56:10.113Z,6.30
2024-03-05T17:58:39.046Z,6.20
2024-03-05T18:01:12.434Z,6.20
2024-03-05T18:03:41.696Z,6.20
2024-03-05T18:06:11.981Z,6.20
2024-03-05T18:08:40.687Z,6.20
2024-03-05T18:11:12.412Z,6.10
2024-03-05T18:13:44.130Z,6.10
2024-03-05T18:16:13.894Z,6.10
2024-03-05T18:18:42.106Z,6.10
2024-03-05T18:21:18.129Z,6.00
2024-03-05T18:23:46.295Z,6.10
2024-03-05T18:26:18.065Z,6.00
2024-03-05T18:28:47.084Z,6.00
2024-03-05T18:31:17.328Z,6.00
2024-03-05T18:33:46.979Z,5.90
2024-03-05T18:36:16.775Z,5.90
2024-03-05T18:38:48.624Z,5.80
2024-03-05T18:41:17.065Z,5.80
2024-03-05T18:43:45.258Z,5.80
2024-03-05T18:46:15.230Z,5.70
2024-03-05T18:48:43.790Z,5.70
2024-03-05T18:51:11.924Z,5.70
2024-03-05T18:53:46.402Z,5.70
2024-03-05T18:56:19.252Z,5.70
2024-03-05T18:58:50.482Z,5.70
2024-03-05T19:01:18.741Z,5.60
2024-03-05T19:03:49.765Z,5.60
2024-03-05T19:06:19.128Z,5.60
2024-03-05T19:08:47.338Z,5.60
2024-03-05T19:11:15.530Z,5.60
2024-03-05T19:13:45.563Z,5.50
2024-03-05T19:16:14.686Z,5.50
2024-03-05T19:18:43.804Z,5.50
2024-03-05T19:21:14.837Z,5.50
2024-03-05T19:23:46.763Z,5.50
2024-03-05T19:26:15.447Z,5.50
2024-03-05T19:28:45.491Z,5.50
2024-03-05T19:31:15.127Z,5.50
2024-03-05T19:33:43.391Z,5.40
2024-03-05T19:36:13.758Z,5.40
2024-03-05T19:38:43.717Z,5.40
2024-03-05T19:41:12.502Z,5.40
2024-03-05T19:43:41.288Z,5.30
2024-03-05T19:46:11.200Z,5.30
2024-03-05T19:48:40.119Z,5.30
2024-03-05T19:51:08.915Z,5.30
2024-03-05T19:53:37.081Z,5.30
2024-03-05T19:56:06.065Z,5.20
2024-03-05T19:58:35.075Z,5.20
2024-03-05T20:01:03.591Z,5.20
2024-03-05T20:03:33.153Z,5.20
2024-03-05T20:06:02.083Z,5.20
2024-03-05T20:08:34.482Z,5.20
2024-03-05T20:11:03.346Z,5.10
2024-03-05T20:13:31.604Z,5.10
2024-03-05T20:15:59.763Z,5.10
2024-03-05T20:18:29.379Z,5.10
2024-03-05T20:20:59.137Z,5.10
2024-03-05T20:23:29.735Z,5.10
2024-03-05T20:25:58.262Z,5.10
2024-03-05T20:28:27.377Z,5.10
2024-03-05T20:30:56.520Z,5.10
2024-03-05T20:33:24.941Z,5.10
2024-03-05T20:35:53.128Z,5.00
2024-03-05T20:38:25.578Z,5.10
2024-03-05T20:40:53.862Z,5.10
2024-03-05T20:43:22.068Z,5.00
2024-03-05T20:45:51.873Z,5.00
2024-03-05T20:48:20.363Z,5.00
2024-03-05T20:50:50.762Z,5.00
2024-03-05T20:53:23.360Z,5.00
2024-03-05T20:55:52.541Z,4.90
2024-03-05T20:58:22.069Z,4.90
2024-03-05T21:00:50.451Z,4.90
2024-03-05T21:03:22.674Z,4.90
2024-03-05T21:05:50.946Z,4.90
2024-03-05T21:08:19.887Z,4.80
2024-03-05T21:10:52.563Z,4.90
2024-03-05T21:13:25.934Z,4.80
2024-03-05T21:15:54.319Z,4.80
2024-03-05T21:18:22.521Z,4.80
2024-03-05T21:20:50.647Z,4.80
2024-03-05T21:23:21.495Z,4.80
2024-03-05T21:26:03.384Z,4.80
2024-03-05T21:28:39.995Z,4.80
2024-03-05T21:31:08.336Z,4.80
2024-03-05T21:33:36.437Z,4.80
2024-03-05T21:36:05.489Z,4.70
2024-03-05T21:38:33.633Z,4.80
2024-03-05T21:41:01.892Z,4.80
2024-03-05T21:43:30.344Z,4.80
2024-03-05T21:46:00.346Z,4.90
2024-03-05T21:48:28.601Z,4.80
2024-03-05T21:51:06.104Z,4.80
2024-03-05T21:53:38.288Z,4.80
2024-03-05T21:56:07.097Z,4.90
2024-03-05T21:58:36.546Z,4.90
2024-03-05T22:01:11.426Z,4.90
2024-03-05T22:03:39.583Z,4.80
2024-03-05T22:06:15.426Z,4.80
2024-03-05T22:08:47.998Z,4.80
2024-03-05T22:11:16.387Z,4.90
2024-03-05T22:13:44.711Z,5.00
2024-03-05T22:16:14.383Z,5.00
2024-03-05T22:18:42.536Z,5.10
2024-03-05T22:21:16.792Z,5.10
2024-03-05T22:23:44.966Z,5.10
2024-03-05T22:26:13.204Z,5.20
2024-03-05T22:28:41.678Z,5.20
2024-03-05T22:31:11.154Z,5.10
2024-03-05T22:33:40.792Z,5.00
2024-03-05T22:36:09.325Z,4.90
2024-03-05T22:38:37.521Z,4.70
2024-03-05T22:41:08.847Z,4.70
2024-03-05T22:43:37.051Z,4.80
2024-03-05T22:46:05.819Z,4.80
2024-03-05T22:48:34.405Z,4.80
2024-03-05T22:51:10.621Z,4.70
2024-03-05T22:53:39.102Z,4.80
2024-03-05T22:56:09.384Z,4.90
2024-03-05T22:58:38.583Z,4.80
2024-03-05T23:01:07.330Z,4.70
2024-03-05T23:03:36.043Z,4.70
2024-03-05T23:06:08.729Z,4.60
2024-03-05T23:08:45.131Z,4.70
2024-03-05T23:11:13.885Z,4.70
2024-03-05T23:13:42.181Z,4.60
2024-03-05T23:16:10.263Z,4.70
2024-03-05T23:18:42.086Z,4.70
2024-03-05T23:21:12.687Z,4.70
2024-03-05T23:23:45.564Z,4.60
2024-03-05T23:26:19.103Z,4.60
2024-03-05T23:28:47.659Z,4.60
2024-03-05T23:31:16.616Z,4.60
2024-03-05T23:33:44.845Z,4.60
2024-03-05T23:36:12.933Z,4.60
2024-03-05T23:38:41.065Z,4.70
2024-03-05T23:41:17.083Z,4.80
2024-03-05T23:43:54.315Z,4.80
2024-03-05T23:46:22.670Z,4.90
2024-03-05T23:48:50.734Z,4.80
2024-03-05T23:51:19.320Z,4.90
2024-03-05T23:53:47.471Z,4.80
2024-03-05T23:56:15.699Z,4.80
2024-03-05T23:58:44.064Z,4.90
